createdAt,value
2018-09-09T00:00:35.874Z,100867.90
2018-09-09T00:03:03.932Z,100863.53
2018-09-09T00:05:32.043Z,100860.52
2018-09-09T00:08:00.130Z,100854.15
2018-09-09T00:10:28.606Z,100850.56
2018-09-09T00:12:56.733Z,100858.14
2018-09-09T00:15:24.834Z,100852.75
2018-09-09T00:17:52.916Z,100848.39
2018-09-09T00:20:20.992Z,100842.82
2018-09-09T00:22:49.117Z,100838.20
2018-09-09T00:25:17.347Z,100836.81
2018-09-09T00:27:45.467Z,100835.23
2018-09-09T00:30:13.551Z,100835.02
2018-09-09T00:32:41.812Z,100836.19
2018-09-09T00:35:09.910Z,100836.59
2018-09-09T00:37:37.976Z,100844.34
2018-09-09T00:40:06.155Z,100842.16
2018-09-09T00:42:34.497Z,100830.43
2018-09-09T00:45:02.563Z,100838.97
2018-09-09T00:47:30.628Z,100836.00
2018-09-09T00:50:04.130Z,100838.20
2018-09-09T00:52:37.533Z,100841.75
2018-09-09T00:55:05.859Z,100842.19
2018-09-09T00:57:33.940Z,100841.98
2018-09-09T01:00:02.080Z,100840.36
2018-09-09T01:02:30.136Z,100851.31
2018-09-09T01:04:58.235Z,100845.52
2018-09-09T01:07:26.363Z,100847.91
2018-09-09T01:09:54.464Z,100849.66
2018-09-09T01:12:22.578Z,100854.02
2018-09-09T01:14:50.632Z,100849.62
2018-09-09T01:17:18.732Z,100847.59
2018-09-09T01:19:46.814Z,100845.80
2018-09-09T01:22:14.926Z,100842.97
2018-09-09T01:24:43.007Z,100842.95
2018-09-09T01:27:11.088Z,100844.13
2018-09-09T01:29:39.143Z,100848.89
2018-09-09T01:32:10.143Z,100847.28
2018-09-09T01:34:38.194Z,100847.28
2018-09-09T01:37:06.264Z,100846.50
2018-09-09T01:39:34.337Z,100845.11
2018-09-09T01:42:02.394Z,100853.65
2018-09-09T01:44:30.434Z,100856.02
2018-09-09T01:46:58.492Z,100845.89
2018-09-09T01:49:26.579Z,100842.33
2018-09-09T01:51:54.628Z,100844.49
2018-09-09T01:54:22.683Z,100853.87
2018-09-09T01:56:50.831Z,100848.08
2018-09-09T01:59:19.717Z,100840.13
2018-09-09T02:01:48.509Z,100837.93
2018-09-09T02:04:16.575Z,100844.89
2018-09-09T02:06:44.632Z,100839.32
2018-09-09T02:09:12.692Z,100852.44
2018-09-09T02:11:40.792Z,100856.02
2018-09-09T02:14:08.874Z,100851.27
2018-09-09T02:16:36.946Z,100847.09
2018-09-09T02:19:05.007Z,100852.07
2018-09-09T02:21:33.083Z,100851.27
2018-09-09T02:24:01.148Z,100843.86
2018-09-09T02:26:29.215Z,100848.44
2018-09-09T02:28:57.296Z,100839.23
2018-09-09T02:31:25.357Z,100832.23
2018-09-09T02:33:53.419Z,100843.34
2018-09-09T02:36:21.487Z,100838.32
2018-09-09T02:38:49.532Z,100840.47
2018-09-09T02:41:17.587Z,100839.47
2018-09-09T02:43:45.669Z,100837.45
2018-09-09T02:46:13.688Z,100840.59
2018-09-09T02:48:41.753Z,100850.11
2018-09-09T02:51:09.831Z,100855.67
2018-09-09T02:53:37.883Z,100855.67
2018-09-09T02:56:10.483Z,100858.46
2018-09-09T02:58:38.684Z,100859.85
2018-09-09T03:01:06.939Z,100858.27
2018-09-09T03:03:35.072Z,100849.70
2018-09-09T03:06:03.160Z,100852.89
2018-09-09T03:08:31.211Z,100852.48
2018-09-09T03:11:04.672Z,100849.92
2018-09-09T03:13:32.797Z,100851.89
2018-09-09T03:16:00.840Z,100846.55
2018-09-09T03:18:28.899Z,100847.33
2018-09-09T03:20:56.975Z,100849.92
2018-09-09T03:23:25.023Z,100849.70
2018-09-09T03:25:53.083Z,100840.55
2018-09-09T03:28:21.208Z,100840.36
2018-09-09T03:30:49.227Z,100846.11
2018-09-09T03:33:17.251Z,100846.28
2018-09-09T03:35:45.280Z,100844.70
2018-09-09T03:38:13.343Z,100844.06
2018-09-09T03:40:41.409Z,100835.28
2018-09-09T03:43:09.570Z,100844.77
2018-09-09T03:45:37.641Z,100849.89
2018-09-09T03:48:05.734Z,100849.62
2018-09-09T03:50:33.787Z,100844.00
2018-09-09T03:53:01.861Z,100841.80
2018-09-09T03:55:30.068Z,100836.41
2018-09-09T03:57:58.127Z,100842.37
2018-09-09T04:00:26.172Z,100843.31
2018-09-09T04:02:54.347Z,100848.88
2018-09-09T04:05:22.419Z,100839.36
2018-09-09T04:07:50.610Z,100838.20
2018-09-09T04:10:18.691Z,100839.53
2018-09-09T04:12:46.756Z,100839.14
2018-09-09T04:15:14.795Z,100841.15
2018-09-09T04:17:42.888Z,100844.70
2018-09-09T04:20:10.919Z,100837.34
2018-09-09T04:22:39.023Z,100831.78
2018-09-09T04:25:07.044Z,100841.51
2018-09-09T04:27:35.137Z,100838.73
2018-09-09T04:30:03.216Z,100835.72
2018-09-09T04:32:31.271Z,100828.58
2018-09-09T04:34:59.350Z,100832.36
2018-09-09T04:37:27.417Z,100823.20
2018-09-09T04:39:55.487Z,100824.41
2018-09-09T04:42:23.568Z,100827.38
2018-09-09T04:44:51.635Z,100833.56
2018-09-09T04:47:19.717Z,100838.50
2018-09-09T04:49:47.788Z,100849.44
2018-09-09T04:52:15.895Z,100855.58
2018-09-09T04:54:43.975Z,100844.81
2018-09-09T04:57:12.016Z,100850.19
2018-09-09T04:59:40.099Z,100858.30
2018-09-09T05:02:08.164Z,100858.09
2018-09-09T05:04:36.233Z,100857.30
2018-09-09T05:07:04.384Z,100859.48
2018-09-09T05:09:32.485Z,100854.95
2018-09-09T05:12:00.550Z,100860.34
2018-09-09T05:14:28.625Z,100868.31
2018-09-09T05:16:56.675Z,100868.34
2018-09-09T05:19:24.783Z,100864.03
2018-09-09T05:21:52.844Z,100877.02
2018-09-09T05:24:20.915Z,100878.69
2018-09-09T05:26:49.015Z,100885.91
2018-09-09T05:29:17.190Z,100888.36
2018-09-09T05:31:45.319Z,100889.41
2018-09-09T05:34:13.475Z,100888.48
2018-09-09T05:36:41.612Z,100876.01
2018-09-09T05:39:11.427Z,100884.02
2018-09-09T05:41:39.520Z,100888.46
2018-09-09T05:44:07.773Z,100885.33
2018-09-09T05:46:35.930Z,100884.63
2018-09-09T05:49:04.192Z,100888.67
2018-09-09T05:51:32.299Z,100895.55
2018-09-09T05:54:00.512Z,100899.20
2018-09-09T05:56:28.572Z,100907.42
2018-09-09T05:58:56.628Z,100908.45
2018-09-09T06:01:25.007Z,100911.11
2018-09-09T06:03:53.097Z,100910.39
2018-09-09T06:06:21.153Z,100917.06
2018-09-09T06:08:55.725Z,100912.57
2018-09-09T06:11:23.785Z,100911.45
2018-09-09T06:13:51.935Z,100910.34
2018-09-09T06:16:20.134Z,100897.47
2018-09-09T06:18:48.336Z,100901.54
2018-09-09T06:21:16.448Z,100912.91
2018-09-09T06:23:44.531Z,100910.38
2018-09-09T06:26:12.605Z,100910.81
2018-09-09T06:28:40.739Z,100899.69
2018-09-09T06:31:08.884Z,100902.14
2018-09-09T06:33:37.161Z,100904.17
2018-09-09T06:36:05.214Z,100899.24
2018-09-09T06:38:33.400Z,100903.86
2018-09-09T06:41:01.492Z,100901.50
2018-09-09T06:43:29.562Z,100893.55
2018-09-09T06:45:57.701Z,100894.97
2018-09-09T06:48:25.805Z,100896.20
2018-09-09T06:50:53.910Z,100906.83
2018-09-09T06:53:21.991Z,100900.45
2018-09-09T06:55:50.053Z,100910.04
2018-09-09T06:58:18.135Z,100910.83
2018-09-09T07:00:46.225Z,100909.08
2018-09-09T07:03:14.339Z,100907.52
2018-09-09T07:05:42.441Z,100915.72
2018-09-09T07:08:10.512Z,100911.75
2018-09-09T07:10:38.706Z,100913.98
2018-09-09T07:13:06.671Z,100919.61
2018-09-09T07:15:34.782Z,100915.08
2018-09-09T07:18:02.817Z,100913.89
2018-09-09T07:20:30.866Z,100922.89
2018-09-09T07:22:58.911Z,100926.30
2018-09-09T07:25:26.975Z,100928.30
2018-09-09T07:27:55.205Z,100934.48
2018-09-09T07:30:23.775Z,100933.70
2018-09-09T07:32:51.857Z,100940.28
2018-09-09T07:35:19.992Z,100941.50
2018-09-09T07:37:48.126Z,100939.09
2018-09-09T07:40:16.275Z,100937.52
2018-09-09T07:42:44.337Z,100931.31
2018-09-09T07:45:12.418Z,100926.95
2018-09-09T07:47:40.495Z,100933.30
2018-09-09T07:50:08.581Z,100931.84
2018-09-09T07:52:36.679Z,100927.29
2018-09-09T07:55:04.801Z,100934.41
2018-09-09T07:57:32.879Z,100929.97
2018-09-09T08:00:01.001Z,100926.39
2018-09-09T08:02:31.339Z,100940.00
2018-09-09T08:04:59.444Z,100932.11
2018-09-09T08:07:27.523Z,100929.26
2018-09-09T08:09:55.698Z,100940.31
2018-09-09T08:12:23.879Z,100939.20
2018-09-09T08:14:51.979Z,100944.45
2018-09-09T08:17:20.112Z,100939.20
2018-09-09T08:19:48.253Z,100936.17
2018-09-09T08:22:16.350Z,100935.50
2018-09-09T08:24:44.509Z,100938.09
2018-09-09T08:27:12.615Z,100937.68
2018-09-09T08:29:40.975Z,100936.30
2018-09-09T08:32:09.078Z,100946.16
2018-09-09T08:34:37.202Z,100948.67
2018-09-09T08:37:05.210Z,100945.24
2018-09-09T08:39:33.271Z,100950.72
2018-09-09T08:42:01.419Z,100959.06
2018-09-09T08:44:29.571Z,100951.94
2018-09-09T08:46:57.667Z,100955.75
2018-09-09T08:49:25.796Z,100957.95
2018-09-09T08:51:54.543Z,100952.77
2018-09-09T08:54:22.792Z,100955.77
2018-09-09T08:56:50.906Z,100952.90
2018-09-09T08:59:18.956Z,100941.89
2018-09-09T09:01:47.736Z,100939.64
2018-09-09T09:04:16.058Z,100945.59
2018-09-09T09:06:44.684Z,100940.62
2018-09-09T09:09:13.221Z,100931.92
2018-09-09T09:11:41.306Z,100924.33
2018-09-09T09:14:09.351Z,100922.07
2018-09-09T09:16:37.404Z,100925.03
2018-09-09T09:19:05.673Z,100917.48
2018-09-09T09:21:33.752Z,100919.38
2018-09-09T09:24:03.041Z,100914.66
2018-09-09T09:26:31.237Z,100913.66
2018-09-09T09:28:59.504Z,100917.97
2018-09-09T09:31:27.651Z,100913.69
2018-09-09T09:33:55.809Z,100916.92
2018-09-09T09:36:24.078Z,100919.69
2018-09-09T09:38:52.199Z,100924.20
2018-09-09T09:41:21.662Z,100920.28
2018-09-09T09:43:49.950Z,100918.69
2018-09-09T09:46:18.095Z,100922.66
2018-09-09T09:48:46.280Z,100932.27
2018-09-09T09:51:14.494Z,100919.30
2018-09-09T09:53:43.208Z,100933.02
2018-09-09T09:56:11.316Z,100926.17
2018-09-09T09:58:39.440Z,100925.73
2018-09-09T10:01:08.139Z,100928.84
2018-09-09T10:03:36.237Z,100927.44
2018-09-09T10:06:05.580Z,100917.78
2018-09-09T10:08:34.371Z,100917.78
2018-09-09T10:11:02.507Z,100918.08
2018-09-09T10:13:30.732Z,100917.64
2018-09-09T10:15:59.207Z,100918.61
2018-09-09T10:18:27.278Z,100921.97
2018-09-09T10:20:55.564Z,100918.95
2018-09-09T10:23:23.639Z,100918.72
2018-09-09T10:25:51.712Z,100924.09
2018-09-09T10:28:19.785Z,100919.27
2018-09-09T10:30:47.867Z,100920.81
2018-09-09T10:33:15.960Z,100914.24
2018-09-09T10:35:44.051Z,100918.84
2018-09-09T10:38:12.205Z,100914.38
2018-09-09T10:40:40.266Z,100915.32
2018-09-09T10:43:08.591Z,100913.64
2018-09-09T10:45:36.656Z,100924.48
2018-09-09T10:48:04.729Z,100906.95
2018-09-09T10:50:32.813Z,100909.54
2018-09-09T10:53:00.886Z,100910.67
2018-09-09T10:55:29.068Z,100904.73
2018-09-09T10:57:57.131Z,100896.09
2018-09-09T11:00:25.435Z,100900.33
2018-09-09T11:02:53.628Z,100900.72
2018-09-09T11:05:21.719Z,100906.43
2018-09-09T11:07:50.331Z,100902.13
2018-09-09T11:10:18.452Z,100899.84
2018-09-09T11:12:46.632Z,100902.94
2018-09-09T11:15:14.909Z,100903.89
2018-09-09T11:17:43.061Z,100903.62
2018-09-09T11:20:11.487Z,100915.17
2018-09-09T11:22:39.644Z,100917.55
2018-09-09T11:27:48.188Z,100920.70
2018-09-09T11:30:16.324Z,100917.00
2018-09-09T11:32:44.494Z,100913.43
2018-09-09T11:35:12.627Z,100914.45
2018-09-09T11:37:40.764Z,100911.13
2018-09-09T11:40:09.891Z,100919.67
2018-09-09T11:42:38.079Z,100914.41
2018-09-09T11:45:07.793Z,100920.48
2018-09-09T11:47:35.907Z,100913.23
2018-09-09T11:50:03.961Z,100914.64
2018-09-09T11:52:32.222Z,100909.91
2018-09-09T11:55:00.588Z,100911.94
2018-09-09T11:57:28.826Z,100913.53
2018-09-09T11:59:57.073Z,100916.00
2018-09-09T12:02:25.247Z,100917.03
2018-09-09T12:04:53.743Z,100918.09
2018-09-09T12:07:22.328Z,100919.16
2018-09-09T12:09:50.407Z,100919.88
2018-09-09T12:12:18.480Z,100923.03
2018-09-09T12:14:46.785Z,100916.23
2018-09-09T12:17:16.572Z,100918.12
2018-09-09T12:19:45.548Z,100918.98
2018-09-09T12:22:13.619Z,100917.57
2018-09-09T12:24:41.784Z,100914.95
2018-09-09T12:27:09.887Z,100913.36
2018-09-09T12:29:38.064Z,100915.36
2018-09-09T12:32:06.545Z,100919.78
2018-09-09T12:34:34.592Z,100911.49
2018-09-09T12:37:02.671Z,100912.73
2018-09-09T12:39:30.816Z,100903.66
2018-09-09T12:41:58.984Z,100900.48
2018-09-09T12:44:32.384Z,100902.92
2018-09-09T12:47:05.837Z,100903.45
2018-09-09T12:49:33.851Z,100899.83
2018-09-09T12:52:01.921Z,100902.39
2018-09-09T12:54:30.052Z,100896.75
2018-09-09T12:56:58.202Z,100900.27
2018-09-09T12:59:26.333Z,100894.63
2018-09-09T13:01:54.621Z,100897.37
2018-09-09T13:04:22.837Z,100892.41
2018-09-09T13:06:51.081Z,100897.02
2018-09-09T13:09:19.208Z,100894.73
2018-09-09T13:11:47.292Z,100899.49
2018-09-09T13:14:15.373Z,100893.58
2018-09-09T13:16:43.419Z,100896.92
2018-09-09T13:19:11.520Z,100889.16
2018-09-09T13:21:39.847Z,100887.31
2018-09-09T13:24:07.907Z,100890.41
2018-09-09T13:26:35.988Z,100886.35
2018-09-09T13:29:04.085Z,100881.58
2018-09-09T13:31:32.180Z,100883.53
2018-09-09T13:34:00.844Z,100887.32
2018-09-09T13:36:28.934Z,100884.51
2018-09-09T13:38:57.258Z,100880.17
2018-09-09T13:41:25.734Z,100882.27
2018-09-09T13:43:55.005Z,100882.12
2018-09-09T13:49:02.745Z,100876.86
2018-09-09T13:51:30.828Z,100881.77
2018-09-09T13:53:58.905Z,100874.80
2018-09-09T13:56:27.037Z,100872.92
2018-09-09T13:58:55.121Z,100879.89
2018-09-09T14:01:23.218Z,100879.52
2018-09-09T14:03:51.407Z,100880.38
2018-09-09T14:06:19.440Z,100889.03
2018-09-09T14:08:47.625Z,100890.09
2018-09-09T14:11:15.759Z,100885.58
2018-09-09T14:13:43.888Z,100897.99
2018-09-09T14:16:11.958Z,100885.64
2018-09-09T14:18:40.044Z,100892.09
2018-09-09T14:21:08.136Z,100899.80
2018-09-09T14:23:36.221Z,100895.64
2018-09-09T14:26:04.330Z,100897.85
2018-09-09T14:28:32.417Z,100883.31
2018-09-09T14:31:00.503Z,100884.12
2018-09-09T14:33:28.657Z,100877.27
2018-09-09T14:35:56.956Z,100881.04
2018-09-09T14:38:25.183Z,100880.08
2018-09-09T14:40:53.472Z,100878.67
2018-09-09T14:43:21.569Z,100877.00
2018-09-09T14:45:49.677Z,100885.04
2018-09-09T14:48:17.768Z,100877.31
2018-09-09T14:50:45.892Z,100881.89
2018-09-09T14:53:14.056Z,100875.58
2018-09-09T14:55:42.064Z,100888.45
2018-09-09T14:58:10.160Z,100888.45
2018-09-09T15:00:38.272Z,100878.75
2018-09-09T15:03:06.620Z,100879.73
2018-09-09T15:05:34.781Z,100878.05
2018-09-09T15:08:02.858Z,100878.91
2018-09-09T15:10:30.929Z,100874.56
2018-09-09T15:12:59.091Z,100870.38
2018-09-09T15:15:27.172Z,100865.54
2018-09-09T15:17:55.349Z,100866.53
2018-09-09T15:20:23.464Z,100868.97
2018-09-09T15:22:51.594Z,100874.70
2018-09-09T15:25:19.652Z,100876.66
2018-09-09T15:27:47.758Z,100877.63
2018-09-09T15:30:16.308Z,100876.88
2018-09-09T15:32:44.377Z,100871.16
2018-09-09T15:35:12.489Z,100863.79
2018-09-09T15:37:40.596Z,100871.98
2018-09-09T15:40:08.824Z,100863.98
2018-09-09T15:42:36.954Z,100860.30
2018-09-09T15:45:05.125Z,100865.45
2018-09-09T15:47:33.203Z,100860.89
2018-09-09T15:50:01.630Z,100858.39
2018-09-09T15:52:29.724Z,100860.95
2018-09-09T15:54:57.983Z,100862.89
2018-09-09T15:57:26.143Z,100864.30
2018-09-09T15:59:54.348Z,100864.58
2018-09-09T16:02:22.476Z,100862.30
2018-09-09T16:04:50.565Z,100862.23
2018-09-09T16:07:18.793Z,100864.72
2018-09-09T16:09:46.772Z,100868.23
2018-09-09T16:12:14.840Z,100868.23
2018-09-09T16:14:42.916Z,100870.17
2018-09-09T16:17:11.030Z,100865.05
2018-09-09T16:19:39.137Z,100869.16
2018-09-09T16:22:07.196Z,100860.62
2018-09-09T16:24:35.361Z,100860.76
2018-09-09T16:27:03.500Z,100865.92
2018-09-09T16:29:31.588Z,100862.79
2018-09-09T16:31:59.622Z,100865.33
2018-09-09T16:34:27.736Z,100865.58
2018-09-09T16:36:56.637Z,100860.66
2018-09-09T16:39:24.843Z,100865.91
2018-09-09T16:41:52.961Z,100864.75
2018-09-09T16:44:21.660Z,100870.03
2018-09-09T16:46:49.932Z,100866.06
2018-09-09T16:49:17.947Z,100859.25
2018-09-09T16:51:46.205Z,100859.69
2018-09-09T16:54:14.287Z,100867.80
2018-09-09T16:56:42.448Z,100856.88
2018-09-09T16:59:10.536Z,100858.83
2018-09-09T17:01:38.594Z,100856.20
2018-09-09T17:04:06.672Z,100856.55
2018-09-09T17:06:34.912Z,100854.95
2018-09-09T17:09:03.160Z,100850.19
2018-09-09T17:11:31.260Z,100846.28
2018-09-09T17:13:59.769Z,100851.38
2018-09-09T17:16:28.006Z,100854.59
2018-09-09T17:18:56.227Z,100850.75
2018-09-09T17:21:24.320Z,100856.95
2018-09-09T17:23:52.471Z,100853.42
2018-09-09T17:26:20.570Z,100848.59
2018-09-09T17:28:49.559Z,100862.23
2018-09-09T17:31:17.624Z,100855.99
2018-09-09T17:33:45.725Z,100861.01
2018-09-09T17:36:13.848Z,100865.81
2018-09-09T17:38:41.920Z,100865.00
2018-09-09T17:41:10.000Z,100871.56
2018-09-09T17:43:38.087Z,100875.11
2018-09-09T17:46:06.365Z,100878.69
2018-09-09T17:48:34.495Z,100873.02
2018-09-09T17:51:02.550Z,100878.95
2018-09-09T17:53:30.651Z,100876.89
2018-09-09T17:55:59.441Z,100880.02
2018-09-09T17:58:27.586Z,100887.34
2018-09-09T18:00:55.635Z,100881.82
2018-09-09T18:03:23.701Z,100880.72
2018-09-09T18:05:51.776Z,100882.44
2018-09-09T18:08:19.875Z,100893.95
2018-09-09T18:10:48.046Z,100892.46
2018-09-09T18:13:16.098Z,100899.95
2018-09-09T18:15:44.174Z,100908.02
2018-09-09T18:18:12.480Z,100906.88
2018-09-09T18:20:40.547Z,100904.17
2018-09-09T18:23:08.602Z,100898.59
2018-09-09T18:25:36.666Z,100901.06
2018-09-09T18:28:04.748Z,100900.33
2018-09-09T18:30:32.851Z,100909.56
2018-09-09T18:33:00.997Z,100907.00
2018-09-09T18:35:29.613Z,100901.42
2018-09-09T18:37:57.672Z,100903.05
2018-09-09T18:40:25.772Z,100905.91
2018-09-09T18:42:53.849Z,100899.50
2018-09-09T18:45:21.977Z,100901.92
2018-09-09T18:47:50.088Z,100904.95
2018-09-09T18:50:18.199Z,100903.00
2018-09-09T18:52:46.286Z,100913.80
2018-09-09T18:55:14.373Z,100912.44
2018-09-09T18:57:42.439Z,100910.63
2018-09-09T19:00:10.602Z,100907.27
2018-09-09T19:02:38.665Z,100913.47
2018-09-09T19:05:06.737Z,100909.87
2018-09-09T19:07:34.799Z,100919.67
2018-09-09T19:10:02.862Z,100920.30
2018-09-09T19:12:30.944Z,100921.11
2018-09-09T19:14:58.983Z,100920.12
2018-09-09T19:17:27.055Z,100920.51
2018-09-09T19:19:55.127Z,100931.91
2018-09-09T19:22:23.224Z,100929.31
2018-09-09T19:24:51.303Z,100922.31
2018-09-09T19:27:19.457Z,100919.72
2018-09-09T19:29:47.549Z,100918.94
2018-09-09T19:32:15.630Z,100925.12
2018-09-09T19:34:43.731Z,100922.11
2018-09-09T19:37:11.805Z,100927.92
2018-09-09T19:39:39.876Z,100920.33
2018-09-09T19:42:07.944Z,100920.52
2018-09-09T19:44:36.032Z,100922.11
2018-09-09T19:47:04.252Z,100925.09
2018-09-09T19:49:32.339Z,100928.67
2018-09-09T19:52:00.628Z,100926.47
2018-09-09T19:54:28.780Z,100925.44
2018-09-09T19:56:56.939Z,100922.20
2018-09-09T19:59:25.044Z,100927.00
2018-09-09T20:01:53.193Z,100926.19
2018-09-09T20:04:21.349Z,100935.95
2018-09-09T20:06:49.412Z,100930.34
2018-09-09T20:09:17.626Z,100926.33
2018-09-09T20:11:45.763Z,100931.13
2018-09-09T20:14:13.870Z,100927.33
2018-09-09T20:16:42.015Z,100922.09
2018-09-09T20:19:10.208Z,100922.48
2018-09-09T20:21:38.349Z,100919.67
2018-09-09T20:24:06.640Z,100918.25
2018-09-09T20:26:34.739Z,100918.05
2018-09-09T20:29:02.853Z,100915.45
2018-09-09T20:31:31.040Z,100914.03
2018-09-09T20:33:59.209Z,100902.21
2018-09-09T20:36:27.404Z,100920.16
2018-09-09T20:38:55.520Z,100921.53
2018-09-09T20:41:23.955Z,100919.91
2018-09-09T20:43:52.114Z,100916.01
2018-09-09T20:46:20.236Z,100917.38
2018-09-09T20:48:51.961Z,100914.34
2018-09-09T20:51:24.901Z,100919.09
2018-09-09T20:53:53.179Z,100922.44
2018-09-09T20:56:22.476Z,100915.22
2018-09-09T20:58:50.548Z,100918.96
2018-09-09T21:01:21.098Z,100916.73
2018-09-09T21:03:51.391Z,100863.26
2018-09-09T21:06:19.701Z,100919.04
2018-09-09T21:08:54.316Z,100917.75
2018-09-09T21:11:22.368Z,100928.65
2018-09-09T21:13:50.505Z,100919.66
2018-09-09T21:16:18.625Z,100922.99
2018-09-09T21:18:46.692Z,100921.37
2018-09-09T21:21:14.769Z,100921.11
2018-09-09T21:23:42.862Z,100917.66
2018-09-09T21:26:10.984Z,100918.20
2018-09-09T21:28:39.031Z,100920.09
2018-09-09T21:31:07.087Z,100919.28
2018-09-09T21:33:35.187Z,100923.41
2018-09-09T21:36:03.267Z,100913.84
2018-09-09T21:38:31.295Z,100916.94
2018-09-09T21:40:59.663Z,100910.97
2018-09-09T21:43:27.723Z,100913.92
2018-09-09T21:45:55.850Z,100916.66
2018-09-09T21:48:24.041Z,100912.84
2018-09-09T21:50:52.139Z,100907.22
2018-09-09T21:53:20.264Z,100907.57
2018-09-09T21:55:48.312Z,100911.48
2018-09-09T21:58:16.366Z,100907.06
2018-09-09T22:00:49.915Z,100905.40
2018-09-09T22:03:18.017Z,100906.38
2018-09-09T22:05:46.090Z,100903.18
2018-09-09T22:08:14.150Z,100905.97
2018-09-09T22:10:42.222Z,100904.13
2018-09-09T22:13:10.337Z,100897.78
2018-09-09T22:15:38.396Z,100897.73
2018-09-09T22:18:06.494Z,100901.47
2018-09-09T22:20:34.551Z,100899.66
2018-09-09T22:23:02.657Z,100898.22
2018-09-09T22:25:30.867Z,100899.56
2018-09-09T22:27:58.927Z,100901.13
2018-09-09T22:30:26.958Z,100904.47
2018-09-09T22:32:56.026Z,100900.82
2018-09-09T22:35:24.084Z,100893.63
2018-09-09T22:37:52.215Z,100889.56
2018-09-09T22:40:20.239Z,100888.50
2018-09-09T22:42:48.284Z,100888.45
2018-09-09T22:47:50.684Z,100889.20
2018-09-09T22:52:53.085Z,100894.13
2018-09-09T22:55:21.128Z,100889.81
2018-09-09T22:57:49.204Z,100886.23
2018-09-09T23:00:17.256Z,100891.56
2018-09-09T23:02:45.343Z,100887.17
2018-09-09T23:05:13.402Z,100887.39
2018-09-09T23:07:41.503Z,100892.53
2018-09-09T23:10:09.591Z,100888.89
2018-09-09T23:12:37.747Z,100886.11
2018-09-09T23:15:06.144Z,100878.94
2018-09-09T23:17:34.211Z,100870.18
2018-09-09T23:20:02.279Z,100876.61
2018-09-09T23:22:30.307Z,100877.77
2018-09-09T23:24:58.456Z,100874.99
2018-09-09T23:27:26.526Z,100870.18
2018-09-09T23:29:54.627Z,100873.94
2018-09-09T23:32:22.769Z,100867.34
2018-09-09T23:34:51.080Z,100872.13
2018-09-09T23:37:19.106Z,100858.53
2018-09-09T23:39:47.165Z,100866.67
2018-09-09T23:42:15.364Z,100866.62
2018-09-09T23:44:43.407Z,100868.59
2018-09-09T23:47:11.500Z,100862.17
2018-09-09T23:49:39.620Z,100862.33
2018-09-09T23:52:07.667Z,100857.91
2018-09-09T23:54:35.747Z,100851.91
2018-09-09T23:57:03.803Z,100849.19
2018-09-09T23:59:31.852Z,100850.63
